sensor_id;sensor_type;location;lat;lon;timestamp;P1;durP1;ratioP1;P2;durP2;ratioP2
72524;SDS011;60547;48.502;8.996;2023-02-26T00:02:02;2.88;;;1.35;;
72524;SDS011;60547;48.502;8.996;2023-02-26T00:04:28;2.28;;;1.30;;
72524;SDS011;60547;48.502;8.996;2023-02-26T00:06:53;5.38;;;1.30;;
72524;SDS011;60547;48.502;8.996;2023-02-26T00:09:20;3.17;;;1.70;;
72524;SDS011;60547;48.502;8.996;2023-02-26T00:11:46;3.38;;;1.40;;
72524;SDS011;60547;48.502;8.996;2023-02-26T00:14:13;4.63;;;1.63;;
72524;SDS011;60547;48.502;8.996;2023-02-26T00:16:40;4.95;;;1.55;;
72524;SDS011;60547;48.502;8.996;2023-02-26T00:19:06;2.95;;;1.40;;
72524;SDS011;60547;48.502;8.996;2023-02-26T00:21:33;5.10;;;1.48;;
72524;SDS011;60547;48.502;8.996;2023-02-26T00:24:00;3.45;;;1.30;;
72524;SDS011;60547;48.502;8.996;2023-02-26T00:26:26;3.42;;;1.50;;
72524;SDS011;60547;48.502;8.996;2023-02-26T00:28:53;4.78;;;1.45;;
72524;SDS011;60547;48.502;8.996;2023-02-26T00:31:19;3.40;;;1.20;;
72524;SDS011;60547;48.502;8.996;2023-02-26T00:33:49;3.60;;;1.40;;
72524;SDS011;60547;48.502;8.996;2023-02-26T00:36:23;2.90;;;1.23;;
72524;SDS011;60547;48.502;8.996;2023-02-26T00:38:54;2.30;;;1.27;;
72524;SDS011;60547;48.502;8.996;2023-02-26T00:41:21;3.75;;;1.30;;
72524;SDS011;60547;48.502;8.996;2023-02-26T00:43:47;2.63;;;1.20;;
72524;SDS011;60547;48.502;8.996;2023-02-26T00:51:55;3.50;;;1.17;;
72524;SDS011;60547;48.502;8.996;2023-02-26T00:54:24;2.70;;;1.30;;
72524;SDS011;60547;48.502;8.996;2023-02-26T00:56:52;5.22;;;1.17;;
72524;SDS011;60547;48.502;8.996;2023-02-26T00:59:20;2.80;;;1.25;;
72524;SDS011;60547;48.502;8.996;2023-02-26T01:01:46;3.67;;;1.60;;
72524;SDS011;60547;48.502;8.996;2023-02-26T01:04:13;6.35;;;1.83;;
72524;SDS011;60547;48.502;8.996;2023-02-26T01:06:53;4.97;;;2.00;;
72524;SDS011;60547;48.502;8.996;2023-02-26T01:11:52;3.53;;;1.63;;
72524;SDS011;60547;48.502;8.996;2023-02-26T01:14:22;2.80;;;1.42;;
72524;SDS011;60547;48.502;8.996;2023-02-26T01:17:00;3.38;;;1.20;;
72524;SDS011;60547;48.502;8.996;2023-02-26T01:24:55;4.88;;;1.67;;
72524;SDS011;60547;48.502;8.996;2023-02-26T01:27:27;5.43;;;1.70;;
72524;SDS011;60547;48.502;8.996;2023-02-26T01:29:53;2.95;;;1.20;;
72524;SDS011;60547;48.502;8.996;2023-02-26T01:38:19;3.70;;;1.65;;
72524;SDS011;60547;48.502;8.996;2023-02-26T01:43:31;3.83;;;1.50;;
72524;SDS011;60547;48.502;8.996;2023-02-26T01:48:48;2.67;;;1.35;;
72524;SDS011;60547;48.502;8.996;2023-02-26T01:51:42;2.30;;;1.17;;
72524;SDS011;60547;48.502;8.996;2023-02-26T01:54:21;4.10;;;1.38;;
72524;SDS011;60547;48.502;8.996;2023-02-26T01:56:50;3.65;;;1.45;;
72524;SDS011;60547;48.502;8.996;2023-02-26T01:59:20;3.80;;;1.42;;
72524;SDS011;60547;48.502;8.996;2023-02-26T02:01:49;3.05;;;1.45;;
72524;SDS011;60547;48.502;8.996;2023-02-26T02:04:16;3.47;;;1.40;;
72524;SDS011;60547;48.502;8.996;2023-02-26T02:06:43;3.15;;;1.50;;
72524;SDS011;60547;48.502;8.996;2023-02-26T02:09:10;3.40;;;1.50;;
72524;SDS011;60547;48.502;8.996;2023-02-26T02:11:39;3.45;;;1.77;;
72524;SDS011;60547;48.502;8.996;2023-02-26T02:14:20;4.22;;;1.50;;
72524;SDS011;60547;48.502;8.996;2023-02-26T02:16:59;5.50;;;2.63;;
72524;SDS011;60547;48.502;8.996;2023-02-26T02:25:16;5.22;;;2.20;;
72524;SDS011;60547;48.502;8.996;2023-02-26T02:33:35;4.13;;;1.88;;
72524;SDS011;60547;48.502;8.996;2023-02-26T02:36:16;5.57;;;2.40;;
72524;SDS011;60547;48.502;8.996;2023-02-26T02:38:49;7.38;;;2.50;;
72524;SDS011;60547;48.502;8.996;2023-02-26T02:41:28;5.78;;;2.30;;
72524;SDS011;60547;48.502;8.996;2023-02-26T02:44:03;5.18;;;2.15;;
72524;SDS011;60547;48.502;8.996;2023-02-26T02:46:33;5.35;;;2.25;;
72524;SDS011;60547;48.502;8.996;2023-02-26T02:49:10;5.18;;;2.22;;
72524;SDS011;60547;48.502;8.996;2023-02-26T02:51:44;4.30;;;2.25;;
72524;SDS011;60547;48.502;8.996;2023-02-26T02:59:56;3.83;;;1.70;;
72524;SDS011;60547;48.502;8.996;2023-02-26T03:02:32;4.25;;;2.08;;
72524;SDS011;60547;48.502;8.996;2023-02-26T03:05:05;4.45;;;1.85;;
72524;SDS011;60547;48.502;8.996;2023-02-26T03:07:32;4.18;;;1.70;;
72524;SDS011;60547;48.502;8.996;2023-02-26T03:10:00;5.85;;;2.22;;
72524;SDS011;60547;48.502;8.996;2023-02-26T03:12:26;3.90;;;1.73;;
72524;SDS011;60547;48.502;8.996;2023-02-26T03:14:56;4.25;;;1.83;;
72524;SDS011;60547;48.502;8.996;2023-02-26T03:20:25;5.95;;;2.00;;
72524;SDS011;60547;48.502;8.996;2023-02-26T03:25:34;5.82;;;2.00;;
72524;SDS011;60547;48.502;8.996;2023-02-26T03:28:35;3.83;;;1.60;;
72524;SDS011;60547;48.502;8.996;2023-02-26T03:36:17;3.25;;;1.60;;
72524;SDS011;60547;48.502;8.996;2023-02-26T03:38:55;3.20;;;1.60;;
72524;SDS011;60547;48.502;8.996;2023-02-26T03:41:28;3.85;;;1.48;;
72524;SDS011;60547;48.502;8.996;2023-02-26T03:44:00;4.18;;;1.90;;
72524;SDS011;60547;48.502;8.996;2023-02-26T03:46:35;2.70;;;1.38;;
72524;SDS011;60547;48.502;8.996;2023-02-26T03:49:06;4.25;;;1.48;;
72524;SDS011;60547;48.502;8.996;2023-02-26T03:51:36;4.25;;;1.58;;
72524;SDS011;60547;48.502;8.996;2023-02-26T03:54:08;5.07;;;1.77;;
72524;SDS011;60547;48.502;8.996;2023-02-26T03:56:41;5.60;;;1.60;;
72524;SDS011;60547;48.502;8.996;2023-02-26T03:59:09;4.28;;;1.80;;
72524;SDS011;60547;48.502;8.996;2023-02-26T04:01:40;4.50;;;1.90;;
72524;SDS011;60547;48.502;8.996;2023-02-26T04:04:57;2.90;;;1.30;;
72524;SDS011;60547;48.502;8.996;2023-02-26T04:07:01;3.15;;;1.70;;
72524;SDS011;60547;48.502;8.996;2023-02-26T04:09:27;3.22;;;1.30;;
72524;SDS011;60547;48.502;8.996;2023-02-26T04:11:53;3.88;;;1.42;;
72524;SDS011;60547;48.502;8.996;2023-02-26T04:14:21;3.85;;;1.38;;
72524;SDS011;60547;48.502;8.996;2023-02-26T04:16:46;3.67;;;1.70;;
72524;SDS011;60547;48.502;8.996;2023-02-26T04:19:12;4.65;;;1.75;;
72524;SDS011;60547;48.502;8.996;2023-02-26T04:21:38;3.90;;;1.50;;
72524;SDS011;60547;48.502;8.996;2023-02-26T04:24:04;3.88;;;1.50;;
72524;SDS011;60547;48.502;8.996;2023-02-26T04:26:30;2.83;;;1.52;;
72524;SDS011;60547;48.502;8.996;2023-02-26T04:28:55;4.40;;;1.70;;
72524;SDS011;60547;48.502;8.996;2023-02-26T04:31:21;4.25;;;1.60;;
72524;SDS011;60547;48.502;8.996;2023-02-26T04:33:46;3.40;;;1.38;;
72524;SDS011;60547;48.502;8.996;2023-02-26T04:36:12;6.13;;;1.80;;
72524;SDS011;60547;48.502;8.996;2023-02-26T04:38:38;3.33;;;1.80;;
72524;SDS011;60547;48.502;8.996;2023-02-26T04:41:04;2.20;;;1.42;;
72524;SDS011;60547;48.502;8.996;2023-02-26T04:43:29;4.25;;;1.70;;
72524;SDS011;60547;48.502;8.996;2023-02-26T04:45:55;4.90;;;1.60;;
72524;SDS011;60547;48.502;8.996;2023-02-26T04:48:20;2.50;;;1.38;;
72524;SDS011;60547;48.502;8.996;2023-02-26T04:50:46;4.15;;;1.52;;
72524;SDS011;60547;48.502;8.996;2023-02-26T04:53:12;3.75;;;1.52;;
72524;SDS011;60547;48.502;8.996;2023-02-26T04:55:37;4.25;;;1.65;;
72524;SDS011;60547;48.502;8.996;2023-02-26T04:58:05;4.18;;;1.50;;
72524;SDS011;60547;48.502;8.996;2023-02-26T05:00:31;2.80;;;1.30;;
72524;SDS011;60547;48.502;8.996;2023-02-26T05:02:56;4.13;;;1.75;;
72524;SDS011;60547;48.502;8.996;2023-02-26T05:05:22;7.18;;;1.83;;
72524;SDS011;60547;48.502;8.996;2023-02-26T05:07:48;4.20;;;1.77;;
72524;SDS011;60547;48.502;8.996;2023-02-26T05:10:13;2.13;;;1.40;;
72524;SDS011;60547;48.502;8.996;2023-02-26T05:12:39;5.43;;;1.98;;
72524;SDS011;60547;48.502;8.996;2023-02-26T05:15:07;2.85;;;1.58;;
72524;SDS011;60547;48.502;8.996;2023-02-26T05:17:34;4.13;;;1.42;;
72524;SDS011;60547;48.502;8.996;2023-02-26T05:19:59;4.35;;;1.45;;
72524;SDS011;60547;48.502;8.996;2023-02-26T05:22:25;4.40;;;1.70;;
72524;SDS011;60547;48.502;8.996;2023-02-26T05:24:50;4.05;;;1.70;;
72524;SDS011;60547;48.502;8.996;2023-02-26T05:27:16;3.97;;;1.63;;
72524;SDS011;60547;48.502;8.996;2023-02-26T05:29:41;3.90;;;1.55;;
72524;SDS011;60547;48.502;8.996;2023-02-26T05:32:09;5.45;;;2.35;;
72524;SDS011;60547;48.502;8.996;2023-02-26T05:34:35;3.80;;;1.45;;
72524;SDS011;60547;48.502;8.996;2023-02-26T05:37:00;4.05;;;1.85;;
72524;SDS011;60547;48.502;8.996;2023-02-26T05:39:26;5.30;;;1.75;;
72524;SDS011;60547;48.502;8.996;2023-02-26T05:41:51;4.90;;;1.67;;
72524;SDS011;60547;48.502;8.996;2023-02-26T05:44:19;4.60;;;1.92;;
72524;SDS011;60547;48.502;8.996;2023-02-26T05:46:46;4.35;;;1.80;;
72524;SDS011;60547;48.502;8.996;2023-02-26T05:49:12;3.33;;;1.77;;
72524;SDS011;60547;48.502;8.996;2023-02-26T05:51:37;4.05;;;1.35;;
72524;SDS011;60547;48.502;8.996;2023-02-26T05:54:03;3.53;;;1.75;;
72524;SDS011;60547;48.502;8.996;2023-02-26T05:56:29;3.40;;;1.42;;
72524;SDS011;60547;48.502;8.996;2023-02-26T05:58:55;3.20;;;1.40;;
72524;SDS011;60547;48.502;8.996;2023-02-26T06:01:21;4.93;;;1.90;;
72524;SDS011;60547;48.502;8.996;2023-02-26T06:03:46;3.70;;;1.70;;
72524;SDS011;60547;48.502;8.996;2023-02-26T06:06:12;5.25;;;2.00;;
72524;SDS011;60547;48.502;8.996;2023-02-26T06:08:40;5.35;;;1.90;;
72524;SDS011;60547;48.502;8.996;2023-02-26T06:11:08;3.72;;;2.20;;
72524;SDS011;60547;48.502;8.996;2023-02-26T06:13:34;5.40;;;2.20;;
72524;SDS011;60547;48.502;8.996;2023-02-26T06:15:59;4.18;;;2.08;;
72524;SDS011;60547;48.502;8.996;2023-02-26T06:18:25;5.65;;;1.85;;
72524;SDS011;60547;48.502;8.996;2023-02-26T06:20:51;6.18;;;2.17;;
72524;SDS011;60547;48.502;8.996;2023-02-26T06:23:16;4.13;;;2.20;;
72524;SDS011;60547;48.502;8.996;2023-02-26T06:25:42;4.65;;;1.80;;
72524;SDS011;60547;48.502;8.996;2023-02-26T06:28:07;7.47;;;2.20;;
72524;SDS011;60547;48.502;8.996;2023-02-26T06:30:33;5.63;;;2.13;;
72524;SDS011;60547;48.502;8.996;2023-02-26T06:32:59;6.03;;;2.38;;
72524;SDS011;60547;48.502;8.996;2023-02-26T06:35:25;4.38;;;1.95;;
72524;SDS011;60547;48.502;8.996;2023-02-26T06:37:54;4.75;;;1.85;;
72524;SDS011;60547;48.502;8.996;2023-02-26T06:40:20;4.97;;;1.73;;
72524;SDS011;60547;48.502;8.996;2023-02-26T06:42:46;4.93;;;1.95;;
72524;SDS011;60547;48.502;8.996;2023-02-26T06:45:11;4.50;;;2.60;;
72524;SDS011;60547;48.502;8.996;2023-02-26T06:47:37;8.60;;;3.20;;
72524;SDS011;60547;48.502;8.996;2023-02-26T06:50:02;6.95;;;3.30;;
72524;SDS011;60547;48.502;8.996;2023-02-26T06:52:29;10.98;;;3.95;;
72524;SDS011;60547;48.502;8.996;2023-02-26T06:54:54;7.68;;;2.88;;
72524;SDS011;60547;48.502;8.996;2023-02-26T06:57:20;7.38;;;3.70;;
72524;SDS011;60547;48.502;8.996;2023-02-26T06:59:48;6.82;;;3.10;;
72524;SDS011;60547;48.502;8.996;2023-02-26T07:02:16;5.97;;;2.92;;
72524;SDS011;60547;48.502;8.996;2023-02-26T07:04:43;8.40;;;3.53;;
72524;SDS011;60547;48.502;8.996;2023-02-26T07:07:09;7.10;;;2.70;;
72524;SDS011;60547;48.502;8.996;2023-02-26T07:09:34;4.72;;;2.15;;
72524;SDS011;60547;48.502;8.996;2023-02-26T07:12:00;6.88;;;2.42;;
72524;SDS011;60547;48.502;8.996;2023-02-26T07:14:26;6.85;;;2.17;;
72524;SDS011;60547;48.502;8.996;2023-02-26T07:16:51;5.25;;;1.88;;
72524;SDS011;60547;48.502;8.996;2023-02-26T07:19:16;5.10;;;2.05;;
72524;SDS011;60547;48.502;8.996;2023-02-26T07:21:42;6.82;;;3.25;;
72524;SDS011;60547;48.502;8.996;2023-02-26T07:24:07;11.00;;;4.63;;
72524;SDS011;60547;48.502;8.996;2023-02-26T07:26:33;8.00;;;2.90;;
72524;SDS011;60547;48.502;8.996;2023-02-26T07:28:58;6.35;;;2.45;;
72524;SDS011;60547;48.502;8.996;2023-02-26T07:31:24;5.70;;;2.47;;
72524;SDS011;60547;48.502;8.996;2023-02-26T07:33:49;4.70;;;2.50;;
72524;SDS011;60547;48.502;8.996;2023-02-26T07:36:15;9.90;;;3.83;;
72524;SDS011;60547;48.502;8.996;2023-02-26T07:38:41;9.50;;;4.47;;
72524;SDS011;60547;48.502;8.996;2023-02-26T07:41:06;9.10;;;4.90;;
72524;SDS011;60547;48.502;8.996;2023-02-26T07:43:32;10.75;;;4.38;;
72524;SDS011;60547;48.502;8.996;2023-02-26T07:45:59;6.03;;;2.90;;
72524;SDS011;60547;48.502;8.996;2023-02-26T07:48:24;4.63;;;2.50;;
72524;SDS011;60547;48.502;8.996;2023-02-26T07:50:51;6.20;;;2.97;;
72524;SDS011;60547;48.502;8.996;2023-02-26T07:53:17;6.70;;;2.47;;
72524;SDS011;60547;48.502;8.996;2023-02-26T07:55:43;4.45;;;2.55;;
72524;SDS011;60547;48.502;8.996;2023-02-26T07:58:09;8.13;;;2.70;;
72524;SDS011;60547;48.502;8.996;2023-02-26T08:00:35;6.28;;;3.10;;
72524;SDS011;60547;48.502;8.996;2023-02-26T08:03:00;4.88;;;2.42;;
72524;SDS011;60547;48.502;8.996;2023-02-26T08:05:26;6.65;;;2.22;;
72524;SDS011;60547;48.502;8.996;2023-02-26T08:07:51;4.93;;;2.00;;
72524;SDS011;60547;48.502;8.996;2023-02-26T08:10:17;5.18;;;2.42;;
72524;SDS011;60547;48.502;8.996;2023-02-26T08:12:43;5.43;;;2.72;;
72524;SDS011;60547;48.502;8.996;2023-02-26T08:15:08;7.22;;;3.70;;
72524;SDS011;60547;48.502;8.996;2023-02-26T08:17:36;5.63;;;3.15;;
72524;SDS011;60547;48.502;8.996;2023-02-26T08:20:03;4.68;;;2.03;;
72524;SDS011;60547;48.502;8.996;2023-02-26T08:22:30;5.25;;;2.53;;
72524;SDS011;60547;48.502;8.996;2023-02-26T08:24:57;4.35;;;1.95;;
72524;SDS011;60547;48.502;8.996;2023-02-26T08:27:24;4.60;;;1.90;;
72524;SDS011;60547;48.502;8.996;2023-02-26T08:29:50;3.08;;;1.63;;
72524;SDS011;60547;48.502;8.996;2023-02-26T08:32:16;3.40;;;1.60;;
72524;SDS011;60547;48.502;8.996;2023-02-26T08:34:44;4.78;;;1.88;;
72524;SDS011;60547;48.502;8.996;2023-02-26T08:37:11;4.03;;;2.03;;
72524;SDS011;60547;48.502;8.996;2023-02-26T08:39:37;6.07;;;1.92;;
72524;SDS011;60547;48.502;8.996;2023-02-26T08:42:06;5.90;;;2.08;;
72524;SDS011;60547;48.502;8.996;2023-02-26T08:44:33;4.70;;;1.48;;
72524;SDS011;60547;48.502;8.996;2023-02-26T08:46:59;4.82;;;1.67;;
72524;SDS011;60547;48.502;8.996;2023-02-26T08:49:25;4.85;;;2.47;;
72524;SDS011;60547;48.502;8.996;2023-02-26T08:51:50;3.85;;;2.10;;
72524;SDS011;60547;48.502;8.996;2023-02-26T08:54:16;4.40;;;1.83;;
72524;SDS011;60547;48.502;8.996;2023-02-26T08:56:41;3.90;;;1.60;;
72524;SDS011;60547;48.502;8.996;2023-02-26T08:59:07;5.43;;;2.35;;
72524;SDS011;60547;48.502;8.996;2023-02-26T09:01:35;5.22;;;1.80;;
72524;SDS011;60547;48.502;8.996;2023-02-26T09:04:01;4.97;;;1.40;;
72524;SDS011;60547;48.502;8.996;2023-02-26T09:06:27;4.72;;;2.05;;
72524;SDS011;60547;48.502;8.996;2023-02-26T09:08:52;4.15;;;1.73;;
72524;SDS011;60547;48.502;8.996;2023-02-26T09:11:18;3.67;;;1.50;;
72524;SDS011;60547;48.502;8.996;2023-02-26T09:13:43;4.85;;;1.55;;
72524;SDS011;60547;48.502;8.996;2023-02-26T09:16:08;3.05;;;1.42;;
72524;SDS011;60547;48.502;8.996;2023-02-26T09:18:34;3.25;;;1.30;;
72524;SDS011;60547;48.502;8.996;2023-02-26T09:21:00;3.20;;;1.60;;
72524;SDS011;60547;48.502;8.996;2023-02-26T09:23:25;3.38;;;1.50;;
72524;SDS011;60547;48.502;8.996;2023-02-26T09:25:52;2.85;;;1.50;;
72524;SDS011;60547;48.502;8.996;2023-02-26T09:28:19;3.40;;;1.35;;
72524;SDS011;60547;48.502;8.996;2023-02-26T09:30:46;3.60;;;1.50;;
72524;SDS011;60547;48.502;8.996;2023-02-26T09:33:12;4.25;;;2.20;;
72524;SDS011;60547;48.502;8.996;2023-02-26T09:35:37;4.20;;;1.92;;
72524;SDS011;60547;48.502;8.996;2023-02-26T09:38:03;5.80;;;2.40;;
72524;SDS011;60547;48.502;8.996;2023-02-26T09:41:02;3.58;;;1.40;;
72524;SDS011;60547;48.502;8.996;2023-02-26T09:48:56;3.08;;;1.10;;
72524;SDS011;60547;48.502;8.996;2023-02-26T09:51:45;4.35;;;1.60;;
72524;SDS011;60547;48.502;8.996;2023-02-26T09:54:18;4.15;;;1.83;;
72524;SDS011;60547;48.502;8.996;2023-02-26T09:56:47;6.18;;;1.77;;
72524;SDS011;60547;48.502;8.996;2023-02-26T09:59:15;4.88;;;1.63;;
72524;SDS011;60547;48.502;8.996;2023-02-26T10:01:49;4.10;;;1.75;;
72524;SDS011;60547;48.502;8.996;2023-02-26T10:09:53;3.35;;;1.58;;
72524;SDS011;60547;48.502;8.996;2023-02-26T10:12:27;3.10;;;1.80;;
72524;SDS011;60547;48.502;8.996;2023-02-26T10:15:41;4.30;;;1.98;;
72524;SDS011;60547;48.502;8.996;2023-02-26T10:23:15;4.05;;;2.25;;
72524;SDS011;60547;48.502;8.996;2023-02-26T10:25:47;3.05;;;1.33;;
72524;SDS011;60547;48.502;8.996;2023-02-26T10:28:28;3.25;;;1.50;;
72524;SDS011;60547;48.502;8.996;2023-02-26T10:31:04;3.90;;;2.05;;
72524;SDS011;60547;48.502;8.996;2023-02-26T10:33:39;3.30;;;1.50;;
72524;SDS011;60547;48.502;8.996;2023-02-26T10:36:34;5.93;;;1.92;;
72524;SDS011;60547;48.502;8.996;2023-02-26T10:39:30;3.78;;;1.83;;
72524;SDS011;60547;48.502;8.996;2023-02-26T10:41:57;4.20;;;1.70;;
72524;SDS011;60547;48.502;8.996;2023-02-26T10:44:33;5.10;;;1.85;;
72524;SDS011;60547;48.502;8.996;2023-02-26T10:47:48;3.50;;;1.33;;
72524;SDS011;60547;48.502;8.996;2023-02-26T10:50:04;4.55;;;1.50;;
72524;SDS011;60547;48.502;8.996;2023-02-26T10:52:34;3.47;;;1.80;;
72524;SDS011;60547;48.502;8.996;2023-02-26T10:58:22;3.33;;;1.65;;
72524;SDS011;60547;48.502;8.996;2023-02-26T11:00:50;3.15;;;1.48;;
72524;SDS011;60547;48.502;8.996;2023-02-26T11:03:20;3.05;;;1.48;;
72524;SDS011;60547;48.502;8.996;2023-02-26T11:05:55;3.60;;;1.55;;
72524;SDS011;60547;48.502;8.996;2023-02-26T11:08:28;3.63;;;1.65;;
72524;SDS011;60547;48.502;8.996;2023-02-26T11:10:58;4.95;;;2.10;;
72524;SDS011;60547;48.502;8.996;2023-02-26T11:13:26;3.95;;;1.58;;
72524;SDS011;60547;48.502;8.996;2023-02-26T11:15:55;3.72;;;1.58;;
72524;SDS011;60547;48.502;8.996;2023-02-26T11:18:26;3.67;;;1.90;;
72524;SDS011;60547;48.502;8.996;2023-02-26T11:20:55;3.35;;;1.50;;
72524;SDS011;60547;48.502;8.996;2023-02-26T11:23:23;3.80;;;1.83;;
72524;SDS011;60547;48.502;8.996;2023-02-26T11:26:00;2.15;;;1.40;;
72524;SDS011;60547;48.502;8.996;2023-02-26T11:28:35;4.07;;;1.70;;
72524;SDS011;60547;48.502;8.996;2023-02-26T11:31:08;3.30;;;1.50;;
72524;SDS011;60547;48.502;8.996;2023-02-26T11:33:39;2.88;;;1.42;;
72524;SDS011;60547;48.502;8.996;2023-02-26T11:36:10;4.47;;;1.33;;
72524;SDS011;60547;48.502;8.996;2023-02-26T11:38:39;4.85;;;1.80;;
72524;SDS011;60547;48.502;8.996;2023-02-26T11:41:05;4.80;;;1.45;;
72524;SDS011;60547;48.502;8.996;2023-02-26T11:43:58;2.40;;;1.20;;
72524;SDS011;60547;48.502;8.996;2023-02-26T11:46:27;2.45;;;1.40;;
72524;SDS011;60547;48.502;8.996;2023-02-26T11:48:53;2.42;;;1.30;;
72524;SDS011;60547;48.502;8.996;2023-02-26T11:51:23;2.70;;;1.27;;
72524;SDS011;60547;48.502;8.996;2023-02-26T11:53:51;2.25;;;1.20;;
72524;SDS011;60547;48.502;8.996;2023-02-26T11:56:31;4.53;;;1.50;;
72524;SDS011;60547;48.502;8.996;2023-02-26T11:59:04;3.10;;;1.50;;
72524;SDS011;60547;48.502;8.996;2023-02-26T12:01:34;4.05;;;1.95;;
72524;SDS011;60547;48.502;8.996;2023-02-26T12:04:00;4.30;;;1.73;;
72524;SDS011;60547;48.502;8.996;2023-02-26T12:06:27;2.15;;;1.25;;
72524;SDS011;60547;48.502;8.996;2023-02-26T12:08:53;3.90;;;2.10;;
72524;SDS011;60547;48.502;8.996;2023-02-26T12:11:25;3.70;;;1.52;;
72524;SDS011;60547;48.502;8.996;2023-02-26T12:38:38;2.50;;;1.30;;
72524;SDS011;60547;48.502;8.996;2023-02-26T12:47:13;3.08;;;1.55;;
72524;SDS011;60547;48.502;8.996;2023-02-26T12:49:49;2.33;;;1.40;;
72524;SDS011;60547;48.502;8.996;2023-02-26T12:58:24;4.60;;;1.40;;
72524;SDS011;60547;48.502;8.996;2023-02-26T13:01:07;4.47;;;1.45;;
72524;SDS011;60547;48.502;8.996;2023-02-26T13:17:31;2.35;;;1.05;;
72524;SDS011;60547;48.502;8.996;2023-02-26T13:20:10;2.53;;;1.42;;
72524;SDS011;60547;48.502;8.996;2023-02-26T13:22:44;3.05;;;1.27;;
72524;SDS011;60547;48.502;8.996;2023-02-26T13:28:00;2.92;;;1.40;;
72524;SDS011;60547;48.502;8.996;2023-02-26T13:30:31;3.05;;;1.42;;
72524;SDS011;60547;48.502;8.996;2023-02-26T13:33:03;2.40;;;1.30;;
72524;SDS011;60547;48.502;8.996;2023-02-26T13:35:40;3.83;;;1.42;;
72524;SDS011;60547;48.502;8.996;2023-02-26T13:51:56;2.13;;;1.10;;
72524;SDS011;60547;48.502;8.996;2023-02-26T13:54:55;3.38;;;1.63;;
72524;SDS011;60547;48.502;8.996;2023-02-26T14:02:58;2.67;;;1.45;;
72524;SDS011;60547;48.502;8.996;2023-02-26T14:10:45;2.92;;;1.73;;
72524;SDS011;60547;48.502;8.996;2023-02-26T14:13:21;2.50;;;1.27;;
72524;SDS011;60547;48.502;8.996;2023-02-26T14:15:59;3.85;;;1.30;;
72524;SDS011;60547;48.502;8.996;2023-02-26T14:21:27;2.05;;;1.17;;
72524;SDS011;60547;48.502;8.996;2023-02-26T14:24:18;3.00;;;1.38;;
72524;SDS011;60547;48.502;8.996;2023-02-26T14:26:49;2.78;;;1.30;;
72524;SDS011;60547;48.502;8.996;2023-02-26T14:29:25;2.22;;;1.20;;
72524;SDS011;60547;48.502;8.996;2023-02-26T14:32:04;2.95;;;1.40;;
72524;SDS011;60547;48.502;8.996;2023-02-26T14:34:36;2.58;;;1.20;;
72524;SDS011;60547;48.502;8.996;2023-02-26T14:37:13;2.72;;;1.00;;
72524;SDS011;60547;48.502;8.996;2023-02-26T14:39:49;2.13;;;1.10;;
72524;SDS011;60547;48.502;8.996;2023-02-26T14:42:39;4.03;;;1.60;;
72524;SDS011;60547;48.502;8.996;2023-02-26T14:47:43;4.60;;;1.38;;
72524;SDS011;60547;48.502;8.996;2023-02-26T14:50:17;1.83;;;1.10;;
72524;SDS011;60547;48.502;8.996;2023-02-26T14:55:22;3.38;;;1.83;;
72524;SDS011;60547;48.502;8.996;2023-02-26T14:58:16;4.18;;;2.88;;
72524;SDS011;60547;48.502;8.996;2023-02-26T15:12:17;2.22;;;1.30;;
72524;SDS011;60547;48.502;8.996;2023-02-26T15:17:52;1.95;;;0.93;;
72524;SDS011;60547;48.502;8.996;2023-02-26T15:20:26;1.95;;;1.10;;
72524;SDS011;60547;48.502;8.996;2023-02-26T15:25:40;2.45;;;1.17;;
72524;SDS011;60547;48.502;8.996;2023-02-26T15:28:41;1.95;;;0.98;;
72524;SDS011;60547;48.502;8.996;2023-02-26T15:31:05;2.53;;;1.40;;
72524;SDS011;60547;48.502;8.996;2023-02-26T15:33:32;3.22;;;1.25;;
72524;SDS011;60547;48.502;8.996;2023-02-26T15:35:59;1.38;;;0.90;;
72524;SDS011;60547;48.502;8.996;2023-02-26T15:38:25;1.63;;;0.90;;
72524;SDS011;60547;48.502;8.996;2023-02-26T15:40:52;1.52;;;0.80;;
72524;SDS011;60547;48.502;8.996;2023-02-26T15:45:51;2.65;;;1.30;;
72524;SDS011;60547;48.502;8.996;2023-02-26T15:48:20;1.60;;;0.90;;
72524;SDS011;60547;48.502;8.996;2023-02-26T15:50:52;3.40;;;1.95;;
72524;SDS011;60547;48.502;8.996;2023-02-26T15:53:29;2.05;;;1.00;;
72524;SDS011;60547;48.502;8.996;2023-02-26T15:55:59;2.30;;;1.00;;
72524;SDS011;60547;48.502;8.996;2023-02-26T15:58:30;2.83;;;1.52;;
72524;SDS011;60547;48.502;8.996;2023-02-26T16:01:00;3.97;;;1.23;;
72524;SDS011;60547;48.502;8.996;2023-02-26T16:03:36;1.83;;;0.90;;
72524;SDS011;60547;48.502;8.996;2023-02-26T16:06:02;1.63;;;0.90;;
72524;SDS011;60547;48.502;8.996;2023-02-26T16:08:30;1.98;;;1.00;;
72524;SDS011;60547;48.502;8.996;2023-02-26T16:10:56;1.98;;;1.10;;
72524;SDS011;60547;48.502;8.996;2023-02-26T16:13:26;2.40;;;1.10;;
72524;SDS011;60547;48.502;8.996;2023-02-26T16:15:57;2.30;;;0.88;;
72524;SDS011;60547;48.502;8.996;2023-02-26T16:18:27;1.73;;;1.10;;
72524;SDS011;60547;48.502;8.996;2023-02-26T16:20:55;4.10;;;1.40;;
72524;SDS011;60547;48.502;8.996;2023-02-26T16:23:25;1.40;;;0.77;;
72524;SDS011;60547;48.502;8.996;2023-02-26T16:26:01;1.38;;;0.70;;
72524;SDS011;60547;48.502;8.996;2023-02-26T16:28:31;2.47;;;1.00;;
72524;SDS011;60547;48.502;8.996;2023-02-26T16:31:02;1.85;;;0.95;;
72524;SDS011;60547;48.502;8.996;2023-02-26T16:33:31;2.30;;;1.20;;
72524;SDS011;60547;48.502;8.996;2023-02-26T16:36:10;2.30;;;1.17;;
72524;SDS011;60547;48.502;8.996;2023-02-26T16:39:29;2.38;;;1.10;;
72524;SDS011;60547;48.502;8.996;2023-02-26T16:41:32;3.30;;;0.95;;
72524;SDS011;60547;48.502;8.996;2023-02-26T16:44:02;1.63;;;1.08;;
72524;SDS011;60547;48.502;8.996;2023-02-26T16:46:42;1.88;;;1.00;;
72524;SDS011;60547;48.502;8.996;2023-02-26T16:49:14;2.15;;;1.00;;
72524;SDS011;60547;48.502;8.996;2023-02-26T16:51:50;3.40;;;1.23;;
72524;SDS011;60547;48.502;8.996;2023-02-26T16:54:30;2.17;;;1.08;;
72524;SDS011;60547;48.502;8.996;2023-02-26T16:57:02;3.20;;;0.90;;
72524;SDS011;60547;48.502;8.996;2023-02-26T16:59:30;2.40;;;1.08;;
72524;SDS011;60547;48.502;8.996;2023-02-26T17:02:03;3.20;;;1.58;;
72524;SDS011;60547;48.502;8.996;2023-02-26T17:04:37;1.63;;;1.00;;
72524;SDS011;60547;48.502;8.996;2023-02-26T17:07:16;3.17;;;1.58;;
72524;SDS011;60547;48.502;8.996;2023-02-26T17:09:50;2.78;;;1.05;;
72524;SDS011;60547;48.502;8.996;2023-02-26T17:14:55;2.53;;;1.23;;
72524;SDS011;60547;48.502;8.996;2023-02-26T17:17:24;3.55;;;1.40;;
72524;SDS011;60547;48.502;8.996;2023-02-26T17:19:50;3.10;;;1.45;;
72524;SDS011;60547;48.502;8.996;2023-02-26T17:22:24;3.28;;;1.40;;
72524;SDS011;60547;48.502;8.996;2023-02-26T17:24:52;3.78;;;1.35;;
72524;SDS011;60547;48.502;8.996;2023-02-26T17:27:30;3.63;;;1.52;;
72524;SDS011;60547;48.502;8.996;2023-02-26T17:29:58;2.85;;;1.17;;
72524;SDS011;60547;48.502;8.996;2023-02-26T17:32:25;2.50;;;1.02;;
72524;SDS011;60547;48.502;8.996;2023-02-26T17:34:52;4.47;;;2.20;;
72524;SDS011;60547;48.502;8.996;2023-02-26T17:37:18;3.30;;;1.33;;
72524;SDS011;60547;48.502;8.996;2023-02-26T17:39:44;3.03;;;1.02;;
72524;SDS011;60547;48.502;8.996;2023-02-26T17:42:12;4.10;;;1.40;;
72524;SDS011;60547;48.502;8.996;2023-02-26T17:44:39;3.10;;;1.42;;
72524;SDS011;60547;48.502;8.996;2023-02-26T17:47:05;4.72;;;1.60;;
72524;SDS011;60547;48.502;8.996;2023-02-26T17:49:34;3.75;;;1.15;;
72524;SDS011;60547;48.502;8.996;2023-02-26T17:51:59;6.03;;;2.42;;
72524;SDS011;60547;48.502;8.996;2023-02-26T17:54:24;3.80;;;1.85;;
72524;SDS011;60547;48.502;8.996;2023-02-26T17:56:50;2.47;;;1.10;;
72524;SDS011;60547;48.502;8.996;2023-02-26T17:59:15;4.15;;;1.30;;
72524;SDS011;60547;48.502;8.996;2023-02-26T18:01:41;1.77;;;1.10;;
72524;SDS011;60547;48.502;8.996;2023-02-26T18:04:06;3.03;;;1.13;;
72524;SDS011;60547;48.502;8.996;2023-02-26T18:06:34;2.70;;;1.20;;